createdAt,value
2018-04-02T00:00:15.872Z,3.36
2018-04-02T00:06:06.508Z,3.44
2018-04-02T00:11:57.244Z,3.59
2018-04-02T00:17:47.802Z,2.83
2018-04-02T00:23:38.474Z,3.12
2018-04-02T00:29:29.134Z,3.49
2018-04-02T00:35:19.783Z,3.73
2018-04-02T00:41:10.360Z,3.87
2018-04-02T00:47:01.025Z,3.4
2018-04-02T00:52:51.610Z,2.77
2018-04-02T00:58:42.323Z,3.73
2018-04-02T01:04:32.961Z,3.56
2018-04-02T01:10:23.636Z,3.54
2018-04-02T01:16:14.179Z,3.01
2018-04-02T01:22:04.824Z,4.61
2018-04-02T01:27:55.475Z,3.78
2018-04-02T01:33:46.106Z,3.78
2018-04-02T01:39:36.776Z,4.02
2018-04-02T01:45:27.466Z,4.2
2018-04-02T01:51:17.982Z,3.84
2018-04-02T01:57:08.632Z,4.5
2018-04-02T02:02:59.255Z,3.71
2018-04-02T02:08:49.912Z,4.3
2018-04-02T02:14:40.537Z,3.2
2018-04-02T02:20:31.177Z,3.75
2018-04-02T02:26:21.786Z,3.76
2018-04-02T02:32:12.430Z,3.08
2018-04-02T02:38:03.081Z,3.87
2018-04-02T02:43:53.693Z,2.86
2018-04-02T02:49:44.378Z,4.14
2018-04-02T02:55:34.975Z,3.87
2018-04-02T03:01:25.576Z,3.79
2018-04-02T03:07:16.208Z,2.6
2018-04-02T03:13:06.836Z,3.08
2018-04-02T03:18:57.477Z,2.81
2018-04-02T03:24:48.087Z,3.24
2018-04-02T03:30:38.693Z,3.41
2018-04-02T03:36:29.388Z,3.39
2018-04-02T03:42:19.988Z,2.91
2018-04-02T03:48:10.657Z,2.61
2018-04-02T03:54:01.234Z,1.64
2018-04-02T03:59:51.817Z,2.9
2018-04-02T04:05:42.439Z,2.89
2018-04-02T04:11:33.073Z,3.96
2018-04-02T04:17:23.681Z,3.23
2018-04-02T04:23:14.343Z,3.5
2018-04-02T04:29:04.954Z,3.24
2018-04-02T04:34:55.531Z,3.05
2018-04-02T04:40:46.203Z,2.71
2018-04-02T04:46:36.805Z,2.75
2018-04-02T04:52:27.481Z,3.33
2018-04-02T04:58:18.090Z,2.6
2018-04-02T05:04:08.695Z,3.29
2018-04-02T05:09:59.276Z,2.54
2018-04-02T05:15:49.939Z,2.71
2018-04-02T05:21:40.558Z,3.33
2018-04-02T05:27:31.153Z,3.31
2018-04-02T05:33:21.823Z,3.16
2018-04-02T05:39:12.434Z,3.34
2018-04-02T05:45:03.064Z,2.91
2018-04-02T05:50:53.683Z,3.73
2018-04-02T05:56:44.286Z,3.15
2018-04-02T06:02:34.901Z,4.3
2018-04-02T06:08:25.556Z,5.05
2018-04-02T06:14:16.172Z,6.2
2018-04-02T06:20:06.823Z,6.45
2018-04-02T06:25:57.435Z,5.43
2018-04-02T06:31:48.034Z,5.5
2018-04-02T06:37:38.675Z,4.96
2018-04-02T06:43:29.386Z,5.85
2018-04-02T06:49:19.961Z,4.2
2018-04-02T06:55:10.575Z,4.84
2018-04-02T07:01:01.233Z,5.53
2018-04-02T07:06:51.819Z,4.55
2018-04-02T07:12:42.459Z,4.7
2018-04-02T07:18:33.173Z,4.37
2018-04-02T07:24:23.789Z,4.82
2018-04-02T07:30:14.384Z,3.74
2018-04-02T07:36:05.064Z,4.69
2018-04-02T07:41:55.706Z,3.83
2018-04-02T07:47:46.338Z,4.53
2018-04-02T07:53:36.931Z,3.72
2018-04-02T07:59:27.584Z,3.61
2018-04-02T08:05:18.233Z,3.28
2018-04-02T08:11:08.901Z,4.53
2018-04-02T08:16:59.523Z,3.46
2018-04-02T08:22:50.166Z,3.9
2018-04-02T08:28:40.941Z,3.34
2018-04-02T08:34:31.507Z,3.42
2018-04-02T08:40:22.194Z,3.62
2018-04-02T08:46:12.852Z,4.35
2018-04-02T08:52:03.466Z,2.61
2018-04-02T08:57:54.096Z,3.17
2018-04-02T09:03:44.770Z,2.12
2018-04-02T09:09:35.435Z,2.78
2018-04-02T09:15:26.144Z,2.49
2018-04-02T09:21:16.747Z,2.49
2018-04-02T09:27:07.393Z,1.98
2018-04-02T09:32:58.085Z,2.61
2018-04-02T09:38:48.739Z,1.92
2018-04-02T09:44:39.475Z,2.38
2018-04-02T09:50:30.072Z,2.53
2018-04-02T09:56:20.776Z,1.84
2018-04-02T10:02:11.418Z,2.56
2018-04-02T10:08:02.076Z,2.09
2018-04-02T10:13:52.796Z,1.88
2018-04-02T10:19:43.429Z,2.06
2018-04-02T10:25:34.104Z,2.34
2018-04-02T10:31:24.815Z,3.03
2018-04-02T10:37:15.486Z,2.48
2018-04-02T10:43:06.135Z,2.64
2018-04-02T10:48:56.830Z,2.31
2018-04-02T10:54:47.489Z,2.34
2018-04-02T11:00:38.194Z,3.45
2018-04-02T11:06:28.858Z,2.74
2018-04-02T11:12:19.536Z,2.55
2018-04-02T11:18:10.151Z,2.31
2018-04-02T11:24:00.880Z,1.56
2018-04-02T11:29:51.561Z,2.2
2018-04-02T11:35:42.238Z,1.65
2018-04-02T11:41:32.942Z,2.09
2018-04-02T11:47:23.612Z,2.12
2018-04-02T11:53:14.304Z,2.14
2018-04-02T11:59:04.973Z,1.73
2018-04-02T12:04:55.721Z,1.67
2018-04-02T12:10:46.361Z,1.81
2018-04-02T12:16:37.058Z,1.94
2018-04-02T12:22:27.712Z,1.82
2018-04-02T12:28:18.441Z,2.25
2018-04-02T12:34:09.111Z,1.87
2018-04-02T12:39:59.851Z,2.15
2018-04-02T12:45:50.504Z,1.65
2018-04-02T12:51:41.223Z,2.42
2018-04-02T12:57:32.057Z,2.05
2018-04-02T13:03:22.694Z,1.45
2018-04-02T13:09:13.438Z,1.77
2018-04-02T13:15:04.215Z,6.37
2018-04-02T13:20:55.001Z,2.16
2018-04-02T13:26:45.745Z,2.06
2018-04-02T13:32:36.519Z,1.91
2018-04-02T13:38:27.312Z,1.64
2018-04-02T13:44:18.061Z,1.8
2018-04-02T13:50:08.845Z,1.85
2018-04-02T13:55:59.630Z,1.82
2018-04-02T14:01:50.401Z,2.05
2018-04-02T14:07:41.172Z,1.89
2018-04-02T14:13:31.938Z,1.84
2018-04-02T14:19:22.734Z,2.2
2018-04-02T14:25:13.555Z,2.08
2018-04-02T14:31:04.277Z,1.95
2018-04-02T14:36:55.079Z,2.31
2018-04-02T14:42:45.802Z,2.09
2018-04-02T14:48:36.575Z,2.04
2018-04-02T14:54:27.337Z,2.13
2018-04-02T15:00:18.088Z,2.3
2018-04-02T15:06:08.882Z,2.77
2018-04-02T15:11:59.625Z,2.06
2018-04-02T15:17:50.358Z,1.77
2018-04-02T15:23:41.114Z,2.13
2018-04-02T15:29:31.851Z,2.38
2018-04-02T15:35:22.609Z,2.27
2018-04-02T15:41:13.337Z,1.8
2018-04-02T15:47:04.102Z,1.77
2018-04-02T15:52:54.752Z,2.09
2018-04-02T15:58:45.531Z,1.77
2018-04-02T16:04:36.230Z,2.06
2018-04-02T16:10:26.907Z,3.74
2018-04-02T16:16:17.715Z,2.54
2018-04-02T16:22:08.335Z,2.29
2018-04-02T16:27:59.027Z,2.81
2018-04-02T16:33:49.756Z,2.54
2018-04-02T16:39:40.467Z,3.02
2018-04-02T16:45:31.179Z,3.01
2018-04-02T16:51:21.862Z,3.74
2018-04-02T16:57:12.594Z,3.2
2018-04-02T17:03:03.259Z,3.41
2018-04-02T17:08:53.894Z,2.95
2018-04-02T17:14:44.631Z,3.21
2018-04-02T17:20:35.293Z,2.59
2018-04-02T17:26:25.957Z,2.29
2018-04-02T17:32:16.669Z,1.64
2018-04-02T17:38:07.339Z,2.39
2018-04-02T17:43:58.048Z,2.57
2018-04-02T17:49:48.736Z,2.37
2018-04-02T17:55:39.416Z,2.14
2018-04-02T18:01:30.019Z,2.34
2018-04-02T18:07:20.750Z,1.8
2018-04-02T18:13:11.416Z,2.34
2018-04-02T18:19:02.056Z,2.66
2018-04-02T18:24:52.756Z,2.78
2018-04-02T18:30:43.378Z,1.86
2018-04-02T18:36:34.113Z,1.71
2018-04-02T18:42:24.697Z,2.13
2018-04-02T18:48:15.400Z,2.15
2018-04-02T18:54:06.106Z,2.49
2018-04-02T18:59:56.754Z,2.8
2018-04-02T19:05:47.361Z,2.3
2018-04-02T19:11:38.063Z,2.14
2018-04-02T19:17:28.714Z,1.9
2018-04-02T19:23:19.353Z,1.6
2018-04-02T19:29:10.030Z,1.82
2018-04-02T19:35:00.690Z,2.05
2018-04-02T19:40:51.346Z,1.87
2018-04-02T19:46:42.060Z,2.13
2018-04-02T19:52:32.711Z,2.19
2018-04-02T19:58:23.323Z,2.18
2018-04-02T20:04:13.996Z,2.24
2018-04-02T20:10:04.727Z,1.72
2018-04-02T20:15:55.356Z,2.9
2018-04-02T20:21:45.992Z,3.21
2018-04-02T20:27:36.675Z,2.59
2018-04-02T20:33:27.325Z,2.09
2018-04-02T20:39:17.973Z,2.05
2018-04-02T20:41:30.835Z,2.47
2018-04-02T20:47:21.524Z,2.47
2018-04-02T20:53:12.183Z,2.18
2018-04-02T20:59:02.883Z,2.71
2018-04-02T21:04:53.481Z,2.9
2018-04-02T21:10:44.127Z,2.79
2018-04-02T21:16:34.764Z,2.7
2018-04-02T21:22:25.431Z,2.68
2018-04-02T21:28:16.087Z,2.85
2018-04-02T21:34:06.787Z,2.64
2018-04-02T21:39:57.401Z,3.27
2018-04-02T21:45:48.042Z,3.28
2018-04-02T21:51:38.694Z,3.67
2018-04-02T21:57:29.326Z,3.53
2018-04-02T22:03:20.007Z,3.27
2018-04-02T22:09:10.636Z,3.21
2018-04-02T22:15:01.276Z,3.18
2018-04-02T22:20:51.896Z,3.89
2018-04-02T22:26:42.532Z,3.72
2018-04-02T22:32:33.246Z,3.25
2018-04-02T22:38:23.834Z,3.6
2018-04-02T22:44:14.477Z,4.03
2018-04-02T22:50:05.138Z,4.98
2018-04-02T22:55:55.732Z,3.9
2018-04-02T23:01:46.403Z,4.19
2018-04-02T23:07:37.039Z,4.36
2018-04-02T23:13:27.664Z,4.48
2018-04-02T23:19:18.313Z,3.8
2018-04-02T23:25:09.014Z,4.03
2018-04-02T23:30:59.571Z,3.76
2018-04-02T23:36:50.219Z,3.7
2018-04-02T23:42:40.882Z,3.15
2018-04-02T23:48:31.481Z,3.34
2018-04-02T23:54:22.127Z,2.85
